Time,TemperatureF,DewpointF,PressureIn,WindDirection,WindDirectionDegrees,WindSpeedMPH,WindSpeedGustMPH,Humidity,HourlyPrecipIn,Conditions,Clouds,dailyrainin,SoftwareType,DateUTC
2013-11-11 00:01:00,40.9,34.2,30.14,West,278,5.8,5.8,77,0.00,-RA,,0.00,WeatherDisplay:10.37,2013-11-11 05:01:00,
2013-11-11 00:02:00,40.9,34.2,30.14,West,278,5.0,5.0,77,0.00,RA,,0.00,WeatherDisplay:10.37,2013-11-11 05:02:00,
2013-11-11 00:03:00,40.9,34.2,30.14,West,278,4.6,4.6,77,0.00,RA,,0.00,WeatherDisplay:10.37,2013-11-11 05:03:00,
2013-11-11 00:06:00,40.9,34.2,30.14,West,281,8.1,8.1,77,0.00,RA,,0.00,WeatherDisplay:10.37,2013-11-11 05:06:00,
2013-11-11 00:11:00,40.9,34.2,30.14,West,277,6.0,6.0,77,0.00,BKN,,0.00,WeatherDisplay:10.37,2013-11-11 05:11:00,
2013-11-11 00:16:00,40.9,34.2,30.14,WNW,293,6.9,6.9,77,0.00,BKN,,0.00,WeatherDisplay:10.37,2013-11-11 05:16:00,
2013-11-11 00:21:00,40.9,33.9,30.14,West,269,5.8,5.8,76,0.00,BKN,,0.00,WeatherDisplay:10.37,2013-11-11 05:21:00,
2013-11-11 00:26:00,40.9,33.9,30.14,West,277,5.8,5.8,76,0.00,BKN,,0.00,WeatherDisplay:10.37,2013-11-11 05:26:00,
2013-11-11 00:31:00,40.9,33.9,30.14,West,279,6.0,6.0,76,0.00,BKN,,0.00,WeatherDisplay:10.37,2013-11-11 05:31:00,
2013-11-11 00:37:00,40.9,33.9,30.14,West,276,5.0,5.0,76,0.00,BKN,,0.00,WeatherDisplay:10.37,2013-11-11 05:37:00,
2013-11-11 00:42:00,40.8,33.8,30.14,West,279,6.9,6.9,76,0.00,BKN,,0.00,WeatherDisplay:10.37,2013-11-11 05:42:00,
2013-11-11 00:47:00,40.8,34.1,30.15,West,279,4.6,4.6,77,0.00,BKN,,0.00,WeatherDisplay:10.37,2013-11-11 05:47:00,
2013-11-11 00:52:00,40.7,34.0,30.15,West,277,6.9,6.9,77,0.00,BKN,,0.00,WeatherDisplay:10.37,2013-11-11 05:52:00,
2013-11-11 00:57:00,40.7,33.7,30.15,West,279,6.9,6.9,76,0.00,BKN,,0.00,WeatherDisplay:10.37,2013-11-11 05:57:00,
2013-11-11 01:02:00,40.6,34.0,30.15,West,273,6.9,6.9,77,0.00,BKN,,0.00,WeatherDisplay:10.37,2013-11-11 06:02:00,
2013-11-11 01:07:00,40.5,33.5,30.14,West,277,5.8,5.8,76,0.00,BKN,,0.00,WeatherDisplay:10.37,2013-11-11 06:07:00,
2013-11-11 01:12:00,40.4,33.4,30.14,West,281,8.1,8.1,76,0.00,BKN,,0.00,WeatherDisplay:10.37,2013-11-11 06:12:00,
2013-11-11 01:17:00,40.3,33.3,30.14,West,279,5.8,5.8,76,0.00,BKN,,0.00,WeatherDisplay:10.37,2013-11-11 06:17:00,
2013-11-11 01:22:00,40.2,33.2,30.14,West,279,4.6,4.6,76,0.00,BKN,,0.00,WeatherDisplay:10.37,2013-11-11 06:22:00,
2013-11-11 01:27:00,40.1,33.1,30.14,West,277,5.8,5.8,76,0.00,BKN,,0.00,WeatherDisplay:10.37,2013-11-11 06:27:00,
2013-11-11 01:32:00,39.9,32.9,30.14,West,277,3.5,3.6,76,0.00,BKN,,0.00,WeatherDisplay:10.37,2013-11-11 06:32:00,
2013-11-11 01:37:00,39.8,32.8,30.14,West,278,4.6,4.6,76,0.00,BKN,,0.00,WeatherDisplay:10.37,2013-11-11 06:37:00,
2013-11-11 01:42:00,39.6,33.0,30.14,West,277,5.0,5.0,77,0.00,BKN,,0.00,WeatherDisplay:10.37,2013-11-11 06:42:00,
2013-11-11 01:47:00,39.4,32.8,30.14,West,277,5.8,5.8,77,0.00,BKN,,0.00,WeatherDisplay:10.37,2013-11-11 06:47:00,
2013-11-11 01:52:00,39.3,32.7,30.14,West,275,4.6,4.6,77,0.00,BKN,,0.00,WeatherDisplay:10.37,2013-11-11 06:52:00,
2013-11-11 01:57:00,39.1,32.5,30.14,West,274,4.6,4.6,77,0.00,BKN,,0.00,WeatherDisplay:10.37,2013-11-11 06:57:00,
2013-11-11 02:02:00,38.9,32.3,30.14,West,274,4.0,4.0,77,0.00,BKN,,0.00,WeatherDisplay:10.37,2013-11-11 07:02:00,
2013-11-11 02:07:00,38.8,32.2,30.13,West,274,4.6,4.6,77,0.00,BKN,,0.00,WeatherDisplay:10.37,2013-11-11 07:07:00,
2013-11-11 02:12:00,38.6,32.3,30.13,West,274,4.0,4.0,78,0.00,BKN,,0.00,WeatherDisplay:10.37,2013-11-11 07:12:00,
2013-11-11 02:17:00,38.5,32.2,30.13,West,274,4.6,4.6,78,0.00,FEW,,0.00,WeatherDisplay:10.37,2013-11-11 07:17:00,
2013-11-11 02:22:00,38.3,32.0,30.14,West,274,4.6,4.6,78,0.00,FEW,,0.00,WeatherDisplay:10.37,2013-11-11 07:22:00,
2013-11-11 02:27:00,38.2,31.9,30.13,West,274,4.6,4.6,78,0.00,FEW,,0.00,WeatherDisplay:10.37,2013-11-11 07:27:00,
2013-11-11 02:32:00,38.1,31.8,30.13,West,274,3.5,3.5,78,0.00,FEW,,0.00,WeatherDisplay:10.37,2013-11-11 07:32:00,
2013-11-11 02:37:00,37.9,31.7,30.13,West,274,3.5,3.5,78,0.00,FEW,,0.00,WeatherDisplay:10.37,2013-11-11 07:37:00,
2013-11-11 02:42:00,37.8,31.9,30.13,West,274,2.3,2.3,79,0.00,FEW,,0.00,WeatherDisplay:10.37,2013-11-11 07:42:00,
2013-11-11 02:47:00,37.6,31.7,30.13,West,274,3.5,3.5,79,0.00,FEW,,0.00,WeatherDisplay:10.37,2013-11-11 07:47:00,
2013-11-11 02:52:00,37.4,31.5,30.14,West,274,2.3,2.3,79,0.00,FEW,,0.00,WeatherDisplay:10.37,2013-11-11 07:52:00,
2013-11-11 02:57:00,37.2,31.6,30.14,West,274,3.0,3.0,80,0.00,FEW,,0.00,WeatherDisplay:10.37,2013-11-11 07:57:00,
2013-11-11 03:02:00,37.0,31.4,30.14,West,274,2.3,2.3,80,0.00,FEW,,0.00,WeatherDisplay:10.37,2013-11-11 08:02:00,
2013-11-11 03:07:00,36.9,31.6,30.14,West,274,2.3,2.3,81,0.00,FEW,,0.00,WeatherDisplay:10.37,2013-11-11 08:07:00,
2013-11-11 03:12:00,36.8,31.5,30.14,West,274,4.0,4.0,81,0.00,FEW,,0.00,WeatherDisplay:10.37,2013-11-11 08:12:00,
2013-11-11 03:17:00,36.6,31.3,30.14,West,274,3.5,3.5,81,0.00,FEW,,0.00,WeatherDisplay:10.37,2013-11-11 08:17:00,
2013-11-11 03:22:00,36.6,31.6,30.14,West,274,3.0,3.0,82,0.00,FEW,,0.00,WeatherDisplay:10.37,2013-11-11 08:22:00,
2013-11-11 03:27:00,36.5,31.5,30.14,West,274,1.2,1.2,82,0.00,FEW,,0.00,WeatherDisplay:10.37,2013-11-11 08:27:00,
2013-11-11 03:32:00,36.5,31.5,30.14,West,274,3.0,3.0,82,0.00,FEW,,0.00,WeatherDisplay:10.37,2013-11-11 08:32:00,
2013-11-11 03:37:00,36.4,31.4,30.13,West,274,2.3,2.3,82,0.00,FEW,,0.00,WeatherDisplay:10.37,2013-11-11 08:37:00,
2013-11-11 03:42:00,36.3,31.3,30.14,West,274,2.3,2.3,82,0.00,FEW,,0.00,WeatherDisplay:10.37,2013-11-11 08:42:00,
2013-11-11 03:48:00,36.2,31.5,30.14,West,274,1.2,1.2,83,0.00,FEW,,0.00,WeatherDisplay:10.37,2013-11-11 08:48:00,
2013-11-11 03:53:00,36.2,31.5,30.14,West,274,3.5,3.5,83,0.00,FEW,,0.00,WeatherDisplay:10.37,2013-11-11 08:53:00,
2013-11-11 03:58:00,36.1,31.4,30.14,West,274,2.3,2.3,83,0.00,FEW,,0.00,WeatherDisplay:10.37,2013-11-11 08:58:00,
2013-11-11 04:03:00,36.1,31.4,30.14,West,274,3.0,3.0,83,0.00,FEW,,0.00,WeatherDisplay:10.37,2013-11-11 09:03:00,
2013-11-11 04:08:00,36.1,31.4,30.14,West,274,2.3,0.0,83,0.00,FEW,,0.00,WeatherDisplay:10.37,2013-11-11 09:08:00,
2013-11-11 04:13:00,36.0,31.3,30.14,West,274,2.3,2.3,83,0.00,FEW,,0.00,WeatherDisplay:10.37,2013-11-11 09:13:00,
2013-11-11 04:18:00,36.0,31.6,30.14,West,274,3.5,3.5,84,0.00,CLR,,0.00,WeatherDisplay:10.37,2013-11-11 09:18:00,
2013-11-11 04:23:00,36.0,31.6,30.13,West,274,2.3,2.3,84,0.00,CLR,,0.00,WeatherDisplay:10.37,2013-11-11 09:23:00,
2013-11-11 04:28:00,35.9,31.5,30.14,West,274,1.2,1.2,84,0.00,CLR,,0.00,WeatherDisplay:10.37,2013-11-11 09:28:00,
2013-11-11 04:34:00,35.8,31.4,30.14,West,274,1.2,1.2,84,0.00,CLR,,0.00,WeatherDisplay:10.37,2013-11-11 09:34:00,
2013-11-11 04:40:00,35.7,31.3,30.14,West,274,0.0,2.0,84,0.00,CLR,,0.00,WeatherDisplay:10.37,2013-11-11 09:40:00,
2013-11-11 04:45:00,35.6,31.5,30.14,West,274,3.5,3.5,85,0.00,CLR,,0.00,WeatherDisplay:10.37,2013-11-11 09:45:00,
2013-11-11 04:50:00,35.5,31.4,30.13,West,274,1.2,1.2,85,0.00,CLR,,0.00,WeatherDisplay:10.37,2013-11-11 09:50:00,
2013-11-11 04:55:00,35.5,31.4,30.13,West,274,3.5,3.5,85,0.00,CLR,,0.00,WeatherDisplay:10.37,2013-11-11 09:55:00,
2013-11-11 05:01:00,35.4,31.3,30.14,West,274,2.3,2.3,85,0.00,CLR,,0.00,WeatherDisplay:10.37,2013-11-11 10:01:00,
2013-11-11 05:06:00,35.4,31.3,30.14,West,274,2.3,2.3,85,0.00,CLR,,0.00,WeatherDisplay:10.37,2013-11-11 10:06:00,
2013-11-11 05:11:00,35.5,31.4,30.13,West,274,2.3,2.3,85,0.00,CLR,,0.00,WeatherDisplay:10.37,2013-11-11 10:11:00,
2013-11-11 05:16:00,35.5,31.7,30.13,West,274,2.3,2.3,86,0.00,CLR,,0.00,WeatherDisplay:10.37,2013-11-11 10:16:00,
2013-11-11 05:21:00,35.6,31.5,30.13,West,274,1.2,1.2,85,0.00,CLR,,0.00,WeatherDisplay:10.37,2013-11-11 10:21:00,
2013-11-11 05:26:00,35.6,31.5,30.12,West,274,2.3,2.3,85,0.00,CLR,,0.00,WeatherDisplay:10.37,2013-11-11 10:26:00,
2013-11-11 05:31:00,35.6,31.5,30.12,West,274,2.3,2.3,85,0.00,CLR,,0.00,WeatherDisplay:10.37,2013-11-11 10:31:00,
2013-11-11 05:36:00,35.7,31.6,30.12,West,274,1.2,1.2,85,0.00,CLR,,0.00,WeatherDisplay:10.37,2013-11-11 10:36:00,
2013-11-11 05:41:00,35.7,31.6,30.12,West,274,1.2,1.2,85,0.00,CLR,,0.00,WeatherDisplay:10.37,2013-11-11 10:41:00,
2013-11-11 05:46:00,35.7,31.6,30.12,West,274,2.3,2.3,85,0.00,CLR,,0.00,WeatherDisplay:10.37,2013-11-11 10:46:00,
2013-11-11 05:52:00,35.7,31.6,30.12,West,274,2.3,2.3,85,0.00,CLR,,0.00,WeatherDisplay:10.37,2013-11-11 10:52:00,
2013-11-11 05:58:00,35.9,31.8,30.12,West,274,3.5,3.5,85,0.00,CLR,,0.00,WeatherDisplay:10.37,2013-11-11 10:58:00,
2013-11-11 06:03:00,36.1,32.0,30.12,West,274,3.5,3.5,85,0.00,CLR,,0.00,WeatherDisplay:10.37,2013-11-11 11:03:00,
2013-11-11 06:08:00,36.2,32.1,30.12,West,274,2.3,2.3,85,0.00,CLR,,0.00,WeatherDisplay:10.37,2013-11-11 11:08:00,
2013-11-11 06:13:00,36.3,31.9,30.12,West,274,2.3,2.3,84,0.00,CLR,,0.00,WeatherDisplay:10.37,2013-11-11 11:13:00,
2013-11-11 06:18:00,36.4,32.0,30.12,West,274,2.3,2.3,84,0.00,OVC,,0.00,WeatherDisplay:10.37,2013-11-11 11:18:00,
2013-11-11 06:23:00,36.4,32.0,30.11,West,274,2.3,2.3,84,0.00,OVC,,0.00,WeatherDisplay:10.37,2013-11-11 11:23:00,
2013-11-11 06:28:00,36.5,32.1,30.11,West,274,2.0,2.0,84,0.00,OVC,,0.00,WeatherDisplay:10.37,2013-11-11 11:28:00,
2013-11-11 06:33:00,36.6,32.2,30.11,West,274,2.3,2.3,84,0.00,OVC,,0.00,WeatherDisplay:10.37,2013-11-11 11:33:00,
2013-11-11 06:38:00,36.6,31.9,30.11,West,274,2.3,2.3,83,0.00,OVC,,0.00,WeatherDisplay:10.37,2013-11-11 11:38:00,
2013-11-11 06:43:00,36.7,32.0,30.11,West,274,3.5,3.5,83,0.00,OVC,,0.00,WeatherDisplay:10.37,2013-11-11 11:43:00,
2013-11-11 06:48:00,36.8,32.1,30.11,West,274,2.3,2.3,83,0.00,OVC,,0.00,WeatherDisplay:10.37,2013-11-11 11:48:00,
2013-11-11 06:53:00,36.9,32.2,30.10,West,274,3.5,3.5,83,0.00,OVC,,0.00,WeatherDisplay:10.37,2013-11-11 11:53:00,
2013-11-11 06:58:00,37.0,32.3,30.10,West,274,3.5,3.5,83,0.00,OVC,,0.00,WeatherDisplay:10.37,2013-11-11 11:58:00,
2013-11-11 07:03:00,37.1,32.1,30.10,West,274,2.3,2.3,82,0.00,BKN,,0.00,WeatherDisplay:10.37,2013-11-11 12:03:00,
2013-11-11 07:08:00,37.2,32.2,30.10,West,274,2.3,2.3,82,0.00,BKN,,0.00,WeatherDisplay:10.37,2013-11-11 12:08:00,
2013-11-11 07:13:00,37.3,32.3,30.10,West,274,1.2,1.2,82,0.00,BKN,,0.00,WeatherDisplay:10.37,2013-11-11 12:13:00,
2013-11-11 07:18:00,37.4,32.4,30.09,West,274,2.3,2.3,82,0.00,BKN,,0.00,WeatherDisplay:10.37,2013-11-11 12:18:00,
2013-11-11 07:23:00,37.6,32.6,30.10,West,274,2.3,2.3,82,0.00,BKN,,0.00,WeatherDisplay:10.37,2013-11-11 12:23:00,
2013-11-11 07:28:00,37.7,32.4,30.09,West,274,2.3,2.3,81,0.00,BKN,,0.00,WeatherDisplay:10.37,2013-11-11 12:28:00,
2013-11-11 07:33:00,37.9,32.3,30.09,West,274,2.0,2.0,80,0.00,BKN,,0.00,WeatherDisplay:10.37,2013-11-11 12:33:00,
2013-11-11 07:38:00,38.0,32.4,30.10,West,274,2.3,0.0,80,0.00,BKN,,0.00,WeatherDisplay:10.37,2013-11-11 12:38:00,
2013-11-11 07:43:00,38.1,32.8,30.09,West,274,2.3,2.3,81,0.00,BKN,,0.00,WeatherDisplay:10.37,2013-11-11 12:43:00,
2013-11-11 07:48:00,38.2,32.9,30.09,West,274,2.3,2.3,81,0.00,BKN,,0.00,WeatherDisplay:10.37,2013-11-11 12:48:00,
2013-11-11 07:53:00,38.3,33.0,30.10,West,274,1.2,1.2,81,0.00,BKN,,0.00,WeatherDisplay:10.37,2013-11-11 12:53:00,
2013-11-11 07:58:00,38.4,33.4,30.09,West,274,2.0,2.0,82,0.00,BKN,,0.00,WeatherDisplay:10.37,2013-11-11 12:58:00,
2013-11-11 08:03:00,38.6,33.6,30.09,West,274,3.5,3.5,82,0.00,BKN,,0.00,WeatherDisplay:10.37,2013-11-11 13:03:00,
2013-11-11 08:08:00,38.7,33.7,30.09,West,274,3.5,3.5,82,0.00,BKN,,0.00,WeatherDisplay:10.37,2013-11-11 13:08:00,
2013-11-11 08:13:00,38.9,33.9,30.09,West,274,2.3,2.3,82,0.00,BKN,,0.00,WeatherDisplay:10.37,2013-11-11 13:13:00,
2013-11-11 08:18:00,39.1,34.1,30.08,West,274,3.5,3.5,82,0.00,BKN,,0.00,WeatherDisplay:10.37,2013-11-11 13:18:00,
2013-11-11 08:23:00,39.4,34.4,30.08,West,265,2.3,2.3,82,0.00,BKN,,0.00,WeatherDisplay:10.37,2013-11-11 13:23:00,
2013-11-11 08:28:00,39.6,34.6,30.08,West,265,3.5,3.5,82,0.00,BKN,,0.00,WeatherDisplay:10.37,2013-11-11 13:28:00,
2013-11-11 08:33:00,39.8,34.4,30.08,West,259,5.8,5.8,81,0.00,BKN,,0.00,WeatherDisplay:10.37,2013-11-11 13:33:00,
2013-11-11 08:38:00,40.0,34.6,30.07,West,259,3.5,3.5,81,0.00,BKN,,0.00,WeatherDisplay:10.37,2013-11-11 13:38:00,
2013-11-11 08:43:00,40.1,34.4,30.07,West,259,2.3,2.3,80,0.00,BKN,,0.00,WeatherDisplay:10.37,2013-11-11 13:43:00,
2013-11-11 08:48:00,40.2,34.5,30.07,West,259,4.6,4.6,80,0.00,BKN,,0.00,WeatherDisplay:10.37,2013-11-11 13:48:00,
2013-11-11 08:53:00,40.3,34.6,30.07,West,259,2.3,2.3,80,0.00,BKN,,0.00,WeatherDisplay:10.37,2013-11-11 13:53:00,
2013-11-11 08:58:00,40.6,34.9,30.07,West,259,2.3,2.3,80,0.00,BKN,,0.00,WeatherDisplay:10.37,2013-11-11 13:58:00,
2013-11-11 09:03:00,40.7,34.7,30.07,West,259,3.5,3.5,79,0.00,BKN,,0.00,WeatherDisplay:10.37,2013-11-11 14:03:00,
2013-11-11 09:08:00,40.9,34.9,30.07,West,259,3.5,3.5,79,0.00,BKN,,0.00,WeatherDisplay:10.37,2013-11-11 14:08:00,
2013-11-11 09:13:00,41.2,35.2,30.07,West,259,3.5,3.5,79,0.00,BKN,,0.00,WeatherDisplay:10.37,2013-11-11 14:13:00,
2013-11-11 09:18:00,41.4,35.1,30.06,West,259,3.5,3.5,78,0.00,OVC,,0.00,WeatherDisplay:10.37,2013-11-11 14:18:00,
2013-11-11 09:23:00,41.6,35.2,30.06,WSW,258,3.5,3.5,78,0.00,OVC,,0.00,WeatherDisplay:10.37,2013-11-11 14:23:00,
2013-11-11 09:28:00,41.9,35.5,30.05,WSW,258,4.0,4.0,78,0.00,OVC,,0.00,WeatherDisplay:10.37,2013-11-11 14:28:00,
2013-11-11 09:33:00,42.2,35.5,30.05,WSW,257,3.5,3.5,77,0.00,OVC,,0.00,WeatherDisplay:10.37,2013-11-11 14:33:00,
2013-11-11 09:38:00,42.4,35.7,30.05,WSW,257,4.6,4.6,77,0.00,OVC,,0.00,WeatherDisplay:10.37,2013-11-11 14:38:00,
2013-11-11 09:43:00,42.6,35.6,30.05,WSW,257,3.5,3.5,76,0.00,OVC,,0.00,WeatherDisplay:10.37,2013-11-11 14:43:00,
2013-11-11 09:48:00,42.8,35.4,30.04,WSW,256,5.0,5.0,75,0.00,OVC,,0.00,WeatherDisplay:10.37,2013-11-11 14:48:00,
2013-11-11 09:53:00,43.0,35.6,30.04,WSW,256,3.5,3.5,75,0.00,OVC,,0.00,WeatherDisplay:10.37,2013-11-11 14:53:00,
2013-11-11 09:58:00,43.1,35.7,30.03,WSW,256,3.5,3.5,75,0.00,OVC,,0.00,WeatherDisplay:10.37,2013-11-11 14:58:00,
2013-11-11 10:03:00,43.2,35.8,30.03,WSW,256,4.0,4.0,75,0.00,OVC,,0.00,WeatherDisplay:10.37,2013-11-11 15:03:00,
2013-11-11 10:08:00,43.2,35.8,30.03,SW,216,4.0,4.0,75,0.00,OVC,,0.00,WeatherDisplay:10.37,2013-11-11 15:08:00,
2013-11-11 10:13:00,43.2,35.8,30.03,South,176,4.0,4.0,75,0.00,OVC,,0.00,WeatherDisplay:10.37,2013-11-11 15:13:00,
2013-11-11 10:18:00,43.2,35.8,30.02,WSW,242,4.6,4.6,75,0.00,OVC,,0.00,WeatherDisplay:10.37,2013-11-11 15:18:00,
2013-11-11 10:23:00,43.2,35.8,30.02,WSW,242,4.0,4.0,75,0.00,OVC,,0.00,WeatherDisplay:10.37,2013-11-11 15:23:00,
2013-11-11 10:28:00,43.2,35.8,30.01,WSW,242,4.6,4.6,75,0.00,OVC,,0.00,WeatherDisplay:10.37,2013-11-11 15:28:00,
2013-11-11 10:33:00,43.3,35.9,30.01,WSW,242,3.5,3.5,75,0.00,OVC,,0.00,WeatherDisplay:10.37,2013-11-11 15:33:00,
2013-11-11 10:38:00,43.4,36.0,30.02,WSW,242,3.5,3.5,75,0.00,OVC,,0.00,WeatherDisplay:10.37,2013-11-11 15:38:00,
2013-11-11 10:43:00,43.5,36.1,30.00,WSW,240,3.5,3.5,75,0.00,OVC,,0.00,WeatherDisplay:10.37,2013-11-11 15:43:00,
2013-11-11 10:48:00,43.5,36.1,30.00,SW,229,4.6,4.6,75,0.00,OVC,,0.00,WeatherDisplay:10.37,2013-11-11 15:48:00,
2013-11-11 10:53:00,43.6,36.2,30.00,SSE,165,4.0,4.0,75,0.00,OVC,,0.00,WeatherDisplay:10.37,2013-11-11 15:53:00,
2013-11-11 10:58:00,43.6,36.2,30.00,SSE,163,5.8,5.8,75,0.00,OVC,,0.00,WeatherDisplay:10.37,2013-11-11 15:58:00,
2013-11-11 11:03:00,43.7,36.3,30.00,SSW,202,3.5,3.5,75,0.00,OVC,,0.00,WeatherDisplay:10.37,2013-11-11 16:03:00,
2013-11-11 11:08:00,43.8,36.4,30.00,South,170,3.5,3.5,75,0.00,OVC,,0.00,WeatherDisplay:10.37,2013-11-11 16:08:00,
2013-11-11 11:13:00,43.9,36.5,30.00,South,180,3.5,3.5,75,0.00,OVC,,0.00,WeatherDisplay:10.37,2013-11-11 16:13:00,
2013-11-11 11:18:00,44.0,36.6,29.99,SSW,195,3.0,3.0,75,0.00,OVC,,0.00,WeatherDisplay:10.37,2013-11-11 16:18:00,
2013-11-11 11:23:00,44.2,36.4,29.99,WSW,248,3.5,3.5,74,0.00,OVC,,0.00,WeatherDisplay:10.37,2013-11-11 16:23:00,
2013-11-11 11:28:00,44.4,36.6,29.99,WSW,248,4.6,4.6,74,0.00,OVC,,0.00,WeatherDisplay:10.37,2013-11-11 16:28:00,
2013-11-11 11:33:00,44.6,36.5,29.98,WSW,248,3.5,3.5,73,0.00,OVC,,0.00,WeatherDisplay:10.37,2013-11-11 16:33:00,
2013-11-11 11:38:00,44.8,36.7,29.98,WSW,248,4.0,4.0,73,0.00,OVC,,0.00,WeatherDisplay:10.37,2013-11-11 16:38:00,
2013-11-11 11:43:00,44.9,36.1,29.98,WSW,243,5.8,5.8,71,0.00,OVC,,0.00,WeatherDisplay:10.37,2013-11-11 16:43:00,
2013-11-11 11:48:00,45.0,36.2,29.98,WSW,244,6.9,6.9,71,0.00,OVC,,0.00,WeatherDisplay:10.37,2013-11-11 16:48:00,
2013-11-11 11:53:00,45.0,35.8,29.97,WSW,244,4.0,4.0,70,0.00,OVC,,0.00,WeatherDisplay:10.37,2013-11-11 16:53:00,
2013-11-11 11:58:00,45.0,35.8,29.98,WSW,237,5.0,5.0,70,0.00,OVC,,0.00,WeatherDisplay:10.37,2013-11-11 16:58:00,
2013-11-11 12:03:00,45.1,34.4,29.98,WSW,240,4.6,4.6,66,0.00,OVC,,0.00,WeatherDisplay:10.37,2013-11-11 17:03:00,
2013-11-11 12:08:00,45.2,33.7,29.97,WSW,242,5.8,5.8,64,0.00,OVC,,0.00,WeatherDisplay:10.37,2013-11-11 17:08:00,
2013-11-11 12:13:00,45.4,33.5,29.97,WSW,240,6.9,6.9,63,0.00,OVC,,0.00,WeatherDisplay:10.37,2013-11-11 17:13:00,
2013-11-11 12:18:00,45.5,33.6,29.97,WSW,245,6.0,6.0,63,0.00,OVC,,0.00,WeatherDisplay:10.37,2013-11-11 17:18:00,
2013-11-11 12:23:00,45.6,33.3,29.97,WSW,254,6.9,6.9,62,0.00,OVC,,0.00,WeatherDisplay:10.37,2013-11-11 17:23:00,
2013-11-11 12:28:00,45.7,33.0,29.96,WSW,247,5.8,5.8,61,0.00,OVC,,0.00,WeatherDisplay:10.37,2013-11-11 17:28:00,
2013-11-11 12:33:00,45.7,32.6,29.95,West,271,9.2,9.2,60,0.00,OVC,,0.00,WeatherDisplay:10.37,2013-11-11 17:33:00,
2013-11-11 12:38:00,45.8,33.1,29.94,West,271,11.5,11.5,61,0.00,OVC,,0.00,WeatherDisplay:10.37,2013-11-11 17:38:00,
2013-11-11 12:43:00,45.7,33.0,29.94,WSW,245,10.4,10.4,61,0.00,OVC,,0.00,WeatherDisplay:10.37,2013-11-11 17:43:00,
2013-11-11 12:49:00,45.7,33.4,29.94,SW,236,7.0,7.0,62,0.00,OVC,,0.00,WeatherDisplay:10.37,2013-11-11 17:49:00,
2013-11-11 12:54:00,45.7,33.4,29.94,WSW,246,9.2,9.2,62,0.00,OVC,,0.00,WeatherDisplay:10.37,2013-11-11 17:54:00,
2013-11-11 12:59:00,45.8,33.5,29.93,WSW,248,6.0,6.0,62,0.00,OVC,,0.00,WeatherDisplay:10.37,2013-11-11 17:59:00,
2013-11-11 13:04:00,45.7,33.8,29.93,West,275,9.2,9.2,63,0.00,-RA,,0.00,WeatherDisplay:10.37,2013-11-11 18:04:00,
2013-11-11 13:09:00,45.7,33.8,29.92,SW,229,11.5,11.5,63,0.00,-RA,,0.00,WeatherDisplay:10.37,2013-11-11 18:09:00,
2013-11-11 13:14:00,45.8,33.5,29.92,WSW,252,10.4,10.4,62,0.00,-RA,,0.00,WeatherDisplay:10.37,2013-11-11 18:14:00,
2013-11-11 13:19:00,45.9,33.6,29.92,SW,235,8.1,8.1,62,0.00,-RA,,0.00,WeatherDisplay:10.37,2013-11-11 18:19:00,
2013-11-11 13:24:00,46.1,33.8,29.92,WSW,257,5.8,5.8,62,0.00,-RA,,0.00,WeatherDisplay:10.37,2013-11-11 18:24:00,
2013-11-11 13:29:00,46.3,34.0,29.92,WSW,244,11.5,11.5,62,0.00,-RA,,0.00,WeatherDisplay:10.37,2013-11-11 18:29:00,
2013-11-11 13:34:00,46.4,34.1,29.92,WSW,240,5.8,5.8,62,0.00,-RA,,0.00,WeatherDisplay:10.37,2013-11-11 18:34:00,
2013-11-11 13:39:00,46.5,34.6,29.92,WSW,253,12.7,12.7,63,0.00,-RA,,0.00,WeatherDisplay:10.37,2013-11-11 18:39:00,
2013-11-11 13:44:00,46.5,34.6,29.92,WSW,244,10.4,10.4,63,0.00,-RA,,0.00,WeatherDisplay:10.37,2013-11-11 18:44:00,
2013-11-11 13:49:00,46.4,34.9,29.92,WSW,237,7.0,7.0,64,0.00,-RA,,0.00,WeatherDisplay:10.37,2013-11-11 18:49:00,
2013-11-11 13:54:00,46.4,35.3,29.92,WNW,292,9.2,9.2,65,0.00,-RA,,0.00,WeatherDisplay:10.37,2013-11-11 18:54:00,
2013-11-11 13:59:00,46.4,35.3,29.91,WSW,245,6.9,6.9,65,0.00,-RA,,0.00,WeatherDisplay:10.37,2013-11-11 18:59:00,
2013-11-11 14:04:00,46.3,35.2,29.91,SW,223,9.2,9.2,65,0.00,-RA,,0.00,WeatherDisplay:10.37,2013-11-11 19:04:00,
2013-11-11 14:09:00,46.1,35.4,29.91,WSW,244,10.4,10.4,66,0.00,-RA,,0.00,WeatherDisplay:10.37,2013-11-11 19:09:00,
2013-11-11 14:14:00,46.0,36.0,29.91,West,259,10.0,10.0,68,0.00,-RA,,0.00,WeatherDisplay:10.37,2013-11-11 19:14:00,
2013-11-11 14:19:00,45.8,36.2,29.91,WSW,253,11.5,11.5,69,0.00,OVC,,0.00,WeatherDisplay:10.37,2013-11-11 19:19:00,
2013-11-11 14:24:00,45.6,36.4,29.91,SW,232,6.9,6.9,70,0.00,OVC,,0.00,WeatherDisplay:10.37,2013-11-11 19:24:00,
2013-11-11 14:29:00,45.3,36.8,29.91,SW,232,6.0,6.0,72,0.00,OVC,,0.00,WeatherDisplay:10.37,2013-11-11 19:29:00,
2013-11-11 14:34:00,45.2,36.7,29.91,West,263,7.0,7.0,72,0.00,OVC,,0.00,WeatherDisplay:10.37,2013-11-11 19:34:00,
2013-11-11 14:39:00,45.0,36.9,29.91,WSW,256,8.1,8.1,73,0.00,OVC,,0.00,WeatherDisplay:10.37,2013-11-11 19:39:00,
2013-11-11 14:44:00,44.8,37.4,29.90,WSW,254,11.5,11.5,75,0.00,OVC,,0.00,WeatherDisplay:10.37,2013-11-11 19:44:00,
2013-11-11 14:49:00,44.5,37.4,29.91,WNW,286,9.0,9.0,76,0.00,OVC,,0.00,WeatherDisplay:10.37,2013-11-11 19:49:00,
2013-11-11 14:54:00,44.2,37.4,29.91,West,261,8.1,8.1,77,0.00,OVC,,0.00,WeatherDisplay:10.37,2013-11-11 19:54:00,
2013-11-11 14:59:00,44.1,37.7,29.91,WSW,244,12.7,12.7,78,0.00,OVC,,0.00,WeatherDisplay:10.37,2013-11-11 19:59:00,
2013-11-11 15:04:00,43.8,37.7,29.91,West,273,8.1,8.1,79,0.00,-RA,,0.00,WeatherDisplay:10.37,2013-11-11 20:04:00,
2013-11-11 15:09:00,43.7,37.6,29.91,SW,227,10.4,10.4,79,0.00,-RA,,0.00,WeatherDisplay:10.37,2013-11-11 20:09:00,
2013-11-11 15:14:00,43.4,37.6,29.91,WSW,244,9.2,9.2,80,0.00,-RA,,0.00,WeatherDisplay:10.37,2013-11-11 20:14:00,
2013-11-11 15:19:00,43.3,38.2,29.92,WSW,255,8.1,8.1,82,0.00,-RA,,0.00,WeatherDisplay:10.37,2013-11-11 20:19:00,
2013-11-11 15:24:00,43.1,38.0,29.92,WSW,244,9.2,9.2,82,0.00,-RA,,0.00,WeatherDisplay:10.37,2013-11-11 20:24:00,
2013-11-11 15:29:00,42.9,38.1,29.92,WNW,290,9.2,9.2,83,0.00,-RA,,0.00,WeatherDisplay:10.37,2013-11-11 20:29:00,
2013-11-11 15:34:00,42.7,38.2,29.92,West,279,6.9,6.9,84,0.00,-RA,,0.00,WeatherDisplay:10.37,2013-11-11 20:34:00,
2013-11-11 15:39:00,42.4,38.2,29.92,WNW,285,9.2,9.2,85,0.00,-RA,,0.00,WeatherDisplay:10.37,2013-11-11 20:39:00,
2013-11-11 15:44:00,42.1,38.2,29.92,West,281,11.0,11.0,86,0.00,-RA,,0.00,WeatherDisplay:10.37,2013-11-11 20:44:00,
2013-11-11 15:49:00,41.8,38.2,29.93,West,278,8.1,8.1,87,0.00,-RA,,0.01,WeatherDisplay:10.37,2013-11-11 20:49:00,
2013-11-11 15:54:00,41.5,38.2,29.93,West,271,5.8,5.8,88,0.01,-RA,,0.01,WeatherDisplay:10.37,2013-11-11 20:54:00,
2013-11-11 15:59:00,41.3,38.3,29.93,West,259,5.8,5.8,89,0.01,-RA,,0.01,WeatherDisplay:10.37,2013-11-11 20:59:00,
2013-11-11 16:04:00,41.1,38.1,29.93,West,267,9.2,9.2,89,0.02,RA,,0.02,WeatherDisplay:10.37,2013-11-11 21:04:00,
2013-11-11 16:09:00,41.0,38.3,29.93,West,276,6.9,6.9,90,0.02,RA,,0.02,WeatherDisplay:10.37,2013-11-11 21:09:00,
2013-11-11 16:14:00,40.9,38.2,29.93,West,274,4.6,4.6,90,0.03,RA,,0.03,WeatherDisplay:10.37,2013-11-11 21:14:00,
2013-11-11 16:19:00,40.8,38.4,29.93,WSW,255,5.0,5.0,91,0.03,RA,,0.03,WeatherDisplay:10.37,2013-11-11 21:19:00,
2013-11-11 16:24:00,40.7,38.3,29.93,West,263,5.8,5.8,91,0.04,RA,,0.04,WeatherDisplay:10.37,2013-11-11 21:24:00,
2013-11-11 16:29:00,40.7,38.6,29.93,West,264,4.6,4.6,92,0.04,RA,,0.04,WeatherDisplay:10.37,2013-11-11 21:29:00,
2013-11-11 16:34:00,40.7,38.6,29.93,West,280,4.6,4.6,92,0.04,OVC,,0.04,WeatherDisplay:10.37,2013-11-11 21:34:00,
2013-11-11 16:39:00,40.6,38.5,29.93,West,260,3.5,3.5,92,0.05,RA,,0.05,WeatherDisplay:10.37,2013-11-11 21:39:00,
2013-11-11 16:44:00,40.6,38.5,29.93,West,276,3.5,3.5,92,0.07,RA,,0.07,WeatherDisplay:10.37,2013-11-11 21:44:00,
2013-11-11 16:49:00,40.6,38.7,29.93,West,276,6.0,6.0,93,0.08,RA,,0.08,WeatherDisplay:10.37,2013-11-11 21:49:00,
2013-11-11 16:54:00,40.5,38.6,29.93,West,275,6.9,6.9,93,0.08,RA,,0.09,WeatherDisplay:10.37,2013-11-11 21:54:00,
2013-11-11 16:59:00,40.3,38.4,29.94,WNW,290,11.5,11.5,93,0.09,RA,,0.10,WeatherDisplay:10.37,2013-11-11 21:59:00,
2013-11-11 17:04:00,40.2,38.1,29.94,West,275,5.8,5.8,92,0.08,RA,,0.10,WeatherDisplay:10.37,2013-11-11 22:04:00,
2013-11-11 17:09:00,40.1,38.0,29.93,WSW,239,10.4,10.4,92,0.09,RA,,0.11,WeatherDisplay:10.37,2013-11-11 22:09:00,
2013-11-11 17:14:00,40.0,38.1,29.94,WSW,250,3.5,3.5,93,0.08,RA,,0.11,WeatherDisplay:10.37,2013-11-11 22:14:00,
2013-11-11 17:19:00,40.0,38.1,29.94,WNW,294,6.9,6.9,93,0.09,RA,,0.12,WeatherDisplay:10.37,2013-11-11 22:19:00,
2013-11-11 17:24:00,39.9,38.0,29.94,West,277,3.5,3.5,93,0.09,RA,,0.13,WeatherDisplay:10.37,2013-11-11 22:24:00,
2013-11-11 17:29:00,39.7,37.8,29.94,WSW,242,4.6,4.6,93,0.10,RA,,0.14,WeatherDisplay:10.37,2013-11-11 22:29:00,
2013-11-11 17:34:00,39.6,37.7,29.94,SW,219,4.6,4.6,93,0.11,RA,,0.15,WeatherDisplay:10.37,2013-11-11 22:34:00,
2013-11-11 17:39:00,39.5,37.6,29.94,SW,231,3.5,3.5,93,0.10,RA,,0.15,WeatherDisplay:10.37,2013-11-11 22:39:00,
2013-11-11 17:45:00,39.4,37.5,29.94,WSW,248,4.6,4.6,93,0.10,RA,,0.16,WeatherDisplay:10.37,2013-11-11 22:45:00,
2013-11-11 17:50:00,39.4,37.8,29.94,WSW,242,5.8,5.8,94,0.10,RA,,0.17,WeatherDisplay:10.37,2013-11-11 22:50:00,
2013-11-11 17:55:00,39.3,37.7,29.94,SW,225,5.8,5.8,94,0.09,RA,,0.17,WeatherDisplay:10.37,2013-11-11 22:55:00,
2013-11-11 18:00:00,39.3,37.7,29.94,WSW,253,3.5,3.5,94,0.09,RA,,0.19,WeatherDisplay:10.37,2013-11-11 23:00:00,
2013-11-11 18:05:00,39.3,37.7,29.94,WSW,238,4.6,4.6,94,0.10,RA,,0.20,WeatherDisplay:10.37,2013-11-11 23:05:00,
2013-11-11 18:10:00,39.2,37.6,29.94,SW,227,6.9,6.9,94,0.10,RA,,0.21,WeatherDisplay:10.37,2013-11-11 23:10:00,
2013-11-11 18:15:00,39.2,37.6,29.95,SW,236,4.0,4.0,94,0.10,RA,,0.21,WeatherDisplay:10.37,2013-11-11 23:15:00,
2013-11-11 18:20:00,39.1,37.5,29.95,WSW,238,3.5,3.5,94,0.10,RA,,0.22,WeatherDisplay:10.37,2013-11-11 23:20:00,
2013-11-11 18:25:00,39.0,37.4,29.95,WSW,238,3.5,3.5,94,0.09,RA,,0.22,WeatherDisplay:10.37,2013-11-11 23:25:00,
2013-11-11 18:30:00,38.9,37.3,29.97,NW,306,3.5,3.5,94,0.10,RA,,0.25,WeatherDisplay:10.37,2013-11-11 23:30:00,
2013-11-11 18:35:00,38.6,37.0,29.97,WNW,284,8.1,8.1,94,0.12,RA,,0.27,WeatherDisplay:10.37,2013-11-11 23:35:00,
2013-11-11 18:40:00,37.9,36.1,29.97,NW,306,6.9,6.9,93,0.13,RA,,0.28,WeatherDisplay:10.37,2013-11-11 23:40:00,
2013-11-11 18:45:00,37.2,35.4,29.97,WNW,286,3.5,3.5,93,0.13,RA,,0.29,WeatherDisplay:10.37,2013-11-11 23:45:00,
2013-11-11 18:50:00,36.8,35.0,29.98,WNW,299,3.5,3.5,93,0.13,RA,,0.31,WeatherDisplay:10.37,2013-11-11 23:50:00,
2013-11-11 18:55:00,36.4,34.6,29.98,West,267,5.8,5.8,93,0.13,RA,,0.31,WeatherDisplay:10.37,2013-11-11 23:55:00,
2013-11-11 19:00:00,36.3,34.7,29.98,WNW,295,3.0,7.0,94,0.00,RA,,0.32,WeatherDisplay:10.37,2013-11-12 00:00:00,
2013-11-11 19:05:00,36.0,34.4,29.98,WNW,300,9.2,9.2,94,0.12,RA,,0.32,WeatherDisplay:10.37,2013-11-12 00:05:00,
2013-11-11 19:10:00,35.8,34.2,29.99,NW,319,10.4,10.4,94,0.12,RA,,0.33,WeatherDisplay:10.37,2013-11-12 00:10:00,
2013-11-11 19:15:00,35.5,33.9,29.99,NW,310,9.2,9.2,94,0.12,RA,,0.33,WeatherDisplay:10.37,2013-11-12 00:15:00,
2013-11-11 19:20:00,35.3,33.7,29.99,NW,309,4.6,4.6,94,0.12,-RA,,0.34,WeatherDisplay:10.37,2013-11-12 00:20:00,
2013-11-11 19:25:00,35.1,33.5,29.99,WSW,258,6.9,6.9,94,0.12,-RA,,0.34,WeatherDisplay:10.37,2013-11-12 00:25:00,
2013-11-11 19:31:00,34.9,33.3,30.00,WNW,294,4.6,4.6,94,0.09,-RA,,0.34,WeatherDisplay:10.37,2013-11-12 00:31:00,
2013-11-11 19:36:00,34.6,33.1,30.00,West,268,8.1,8.1,94,0.08,-RA,,0.35,WeatherDisplay:10.37,2013-11-12 00:36:00,
2013-11-11 19:41:00,34.4,32.9,30.00,NW,309,6.9,6.9,94,0.07,-RA,,0.35,WeatherDisplay:10.37,2013-11-12 00:41:00,
2013-11-11 19:46:00,34.3,32.8,30.00,NW,314,5.0,5.0,94,0.05,-RA,,0.35,WeatherDisplay:10.37,2013-11-12 00:46:00,
2013-11-11 19:51:00,34.1,32.6,30.00,West,281,5.8,5.8,94,0.04,-SN,,0.35,WeatherDisplay:10.37,2013-11-12 00:51:00,
2013-11-11 19:56:00,34.0,32.5,30.01,West,266,6.9,7.5,94,0.04,-SN,,0.35,WeatherDisplay:10.37,2013-11-12 00:56:00,
2013-11-11 20:01:00,33.9,32.6,30.01,WNW,284,5.0,5.0,95,0.03,-SN,,0.35,WeatherDisplay:10.37,2013-11-12 01:01:00,
2013-11-11 20:06:00,33.8,32.5,30.01,West,277,4.0,4.0,95,0.03,-SN,,0.35,WeatherDisplay:10.37,2013-11-12 01:06:00,
2013-11-11 20:11:00,33.8,32.5,30.01,West,271,4.6,4.6,95,0.02,-SN,,0.35,WeatherDisplay:10.37,2013-11-12 01:11:00,
2013-11-11 20:16:00,33.7,32.4,30.02,WNW,283,8.0,8.0,95,0.02,-SN,,0.35,WeatherDisplay:10.37,2013-11-12 01:16:00,
2013-11-11 20:21:00,33.5,32.2,30.02,West,277,8.1,8.1,95,0.01,OVC,,0.35,WeatherDisplay:10.37,2013-11-12 01:21:00,
2013-11-11 20:26:00,33.4,32.1,30.02,WNW,286,6.9,6.9,95,0.01,OVC,,0.35,WeatherDisplay:10.37,2013-11-12 01:26:00,
2013-11-11 20:32:00,33.2,31.9,30.02,West,260,5.8,5.8,95,0.01,OVC,,0.35,WeatherDisplay:10.37,2013-11-12 01:32:00,
2013-11-11 20:37:00,33.2,31.9,30.02,West,281,8.1,8.1,95,0.00,OVC,,0.35,WeatherDisplay:10.37,2013-11-12 01:37:00,
2013-11-11 20:42:00,33.1,31.8,30.02,West,277,6.9,6.9,95,0.00,OVC,,0.35,WeatherDisplay:10.37,2013-11-12 01:42:00,
2013-11-11 20:47:00,33.0,31.7,30.03,West,275,5.0,5.0,95,0.00,OVC,,0.35,WeatherDisplay:10.37,2013-11-12 01:47:00,
2013-11-11 20:52:00,33.0,31.7,30.03,West,277,5.0,5.0,95,0.00,OVC,,0.35,WeatherDisplay:10.37,2013-11-12 01:52:00,
2013-11-11 20:57:00,32.9,31.6,30.03,West,273,5.8,5.8,95,0.00,OVC,,0.35,WeatherDisplay:10.37,2013-11-12 01:57:00,
2013-11-11 21:02:00,32.7,31.4,30.04,West,273,5.0,5.0,95,0.00,-SN,,0.35,WeatherDisplay:10.37,2013-11-12 02:02:00,
2013-11-11 21:07:00,32.6,31.3,30.03,WNW,282,8.1,8.1,95,0.00,-SN,,0.35,WeatherDisplay:10.37,2013-11-12 02:07:00,
2013-11-11 21:12:00,32.5,31.2,30.04,West,280,5.8,5.8,95,0.00,-SN,,0.35,WeatherDisplay:10.37,2013-11-12 02:12:00,
2013-11-11 21:17:00,32.3,31.0,30.04,West,277,5.0,5.0,95,0.00,-SN,,0.35,WeatherDisplay:10.37,2013-11-12 02:17:00,
2013-11-11 21:22:00,32.2,30.9,30.04,West,269,4.6,4.6,95,0.00,-SN,,0.35,WeatherDisplay:10.37,2013-11-12 02:22:00,
2013-11-11 21:27:00,32.2,30.9,30.04,WNW,283,4.6,4.6,95,0.00,-SN,,0.35,WeatherDisplay:10.37,2013-11-12 02:27:00,
2013-11-11 21:33:00,32.1,30.8,30.05,West,277,4.6,4.6,95,0.00,-SN,,0.35,WeatherDisplay:10.37,2013-11-12 02:33:00,
2013-11-11 21:38:00,32.1,30.8,30.05,West,277,4.6,4.6,95,0.00,-SN,,0.35,WeatherDisplay:10.37,2013-11-12 02:38:00,
2013-11-11 21:43:00,32.0,30.7,30.05,NW,306,9.2,9.2,95,0.00,-SN,,0.35,WeatherDisplay:10.37,2013-11-12 02:43:00,
2013-11-11 21:48:00,31.9,30.6,30.05,West,275,4.0,4.0,95,0.00,-SN,,0.35,WeatherDisplay:10.37,2013-11-12 02:48:00,
2013-11-11 21:53:00,31.9,30.6,30.05,West,275,4.6,4.6,95,0.00,-SN,,0.35,WeatherDisplay:10.37,2013-11-12 02:53:00,
2013-11-11 21:58:00,31.9,30.6,30.06,West,263,7.0,7.0,95,0.00,-SN,,0.35,WeatherDisplay:10.37,2013-11-12 02:58:00,
2013-11-11 22:03:00,31.8,30.5,30.06,WNW,302,4.6,4.6,95,0.00,-SN,,0.35,WeatherDisplay:10.37,2013-11-12 03:03:00,
2013-11-11 22:08:00,31.8,30.5,30.06,West,277,3.5,3.5,95,0.00,-SN,,0.35,WeatherDisplay:10.37,2013-11-12 03:08:00,
2013-11-11 22:13:00,31.8,30.5,30.07,West,277,4.6,4.6,95,0.00,-SN,,0.35,WeatherDisplay:10.37,2013-11-12 03:13:00,
2013-11-11 22:18:00,31.8,30.5,30.07,West,277,4.6,4.6,95,0.00,-SN,,0.35,WeatherDisplay:10.37,2013-11-12 03:18:00,
2013-11-11 22:23:00,31.8,30.8,30.07,West,277,4.6,4.6,96,0.00,-SN,,0.35,WeatherDisplay:10.37,2013-11-12 03:23:00,
2013-11-11 22:28:00,31.8,30.5,30.07,West,277,4.6,4.6,95,0.00,-SN,,0.35,WeatherDisplay:10.37,2013-11-12 03:28:00,
2013-11-11 22:33:00,31.7,30.4,30.07,West,277,3.5,3.5,95,0.00,-SN,,0.35,WeatherDisplay:10.37,2013-11-12 03:33:00,
2013-11-11 22:38:00,31.7,30.4,30.07,West,277,5.8,5.8,95,0.00,-SN,,0.35,WeatherDisplay:10.37,2013-11-12 03:38:00,
2013-11-11 22:43:00,31.5,30.2,30.08,West,277,5.0,5.0,95,0.00,-SN,,0.35,WeatherDisplay:10.37,2013-11-12 03:43:00,
2013-11-11 22:48:00,31.4,30.1,30.08,West,277,3.5,3.5,95,0.00,-SN,,0.35,WeatherDisplay:10.37,2013-11-12 03:48:00,
2013-11-11 22:54:00,31.4,30.1,30.08,NW,308,8.1,8.1,95,0.00,-SN,,0.35,WeatherDisplay:10.37,2013-11-12 03:54:00,
2013-11-11 22:59:00,31.2,29.9,30.08,WNW,283,4.6,5.4,95,0.00,-SN,,0.35,WeatherDisplay:10.37,2013-11-12 03:59:00,
2013-11-11 23:04:00,31.0,29.7,30.08,WNW,291,4.6,4.6,95,0.00,-SN,,0.35,WeatherDisplay:10.37,2013-11-12 04:04:00,
2013-11-11 23:09:00,30.8,29.5,30.09,WNW,288,3.5,3.5,95,0.00,-SN,,0.35,WeatherDisplay:10.37,2013-11-12 04:09:00,
2013-11-11 23:14:00,30.7,29.2,30.08,WNW,284,5.8,5.8,94,0.00,-SN,,0.35,WeatherDisplay:10.37,2013-11-12 04:14:00,
2013-11-11 23:19:00,30.7,29.2,30.08,WNW,284,5.0,5.0,94,0.00,-SN,,0.35,WeatherDisplay:10.37,2013-11-12 04:19:00,
2013-11-11 23:24:00,30.6,29.1,30.09,WNW,283,3.5,3.5,94,0.00,-SN,,0.35,WeatherDisplay:10.37,2013-11-12 04:24:00,
2013-11-11 23:29:00,30.7,28.9,30.09,WNW,283,3.5,3.5,93,0.00,-SN,,0.35,WeatherDisplay:10.37,2013-11-12 04:29:00,
2013-11-11 23:34:00,30.7,28.9,30.09,WNW,283,3.5,3.5,93,0.00,-SN,,0.35,WeatherDisplay:10.37,2013-11-12 04:34:00,
2013-11-11 23:39:00,30.8,29.0,30.09,WNW,283,3.5,3.5,93,0.00,-SN,,0.35,WeatherDisplay:10.37,2013-11-12 04:39:00,
2013-11-11 23:44:00,30.8,29.0,30.09,WNW,283,3.5,3.5,93,0.00,-SN,,0.35,WeatherDisplay:10.37,2013-11-12 04:44:00,
2013-11-11 23:49:00,30.8,29.0,30.10,WNW,283,3.5,3.5,93,0.00,-SN,,0.35,WeatherDisplay:10.37,2013-11-12 04:49:00,
2013-11-11 23:54:00,30.8,29.0,30.10,WNW,283,2.3,2.3,93,0.00,-SN,,0.35,WeatherDisplay:10.37,2013-11-12 04:54:00,
2013-11-11 23:59:00,30.7,28.7,30.10,WNW,282,4.6,4.6,92,0.00,-SN,,0.35,WeatherDisplay:10.37,2013-11-12 04:59:00,